Airfield :
LOGIN :

Register | Disclaimer

   EN    FR    IT 

 










Legend :    VFR   Marginal VFR   IFR   Intensive IFR   Very Intensive IFR
Visi :
Ceiling :
>= 8 km
>= 3000ft
5 to 8 km
1000 to 3000 ft
1500m to 5 km
500 to 1000 ft
800 to 1500m
200 to 500 ft
< 800m
< 200 ft
Symbols :   Thunderstorms  Fog  Heavy snow  Heavy precipitations  Wind > 20 kt
SIGMETs :     Misc.  Thunderstorms  Icing  Turbulence  Mountain Waves  Volcanic Ashes






- Airport Elevation : 200 ft


EBBL - Klein Brogel AB

CURRENT METAR :
  • 170633Z 25006KT 1000 OVC002 01/01 Q1015 AMB AMB

EXPIRED METARs :
  • 170625Z AUTO 25005KT 0800 FG OVC002/// 01/01 Q1015 AMB
  • 170555Z AUTO 24006KT 0900 BR OVC002/// 01/01 Q1015 AMB
  • 170525Z AUTO 23005KT 2400 -RA OVC002/// 01/01 Q1015 AMB
  • 170455Z AUTO 22006KT 3900 -DZ BKN003/// 00/00 Q1015 YLO
  • 170425Z AUTO 21005KT 2100 DZ BKN002/// 00/00 Q1015 AMB
  • 170416Z AUTO 22004KT 2000 BR OVC002/// 00/00 Q1015 AMB
  • 170355Z AUTO 21005KT 2500 BR OVC003/// 00/00 Q1015 YLO

TAF TAF EBBL
Valid from the 17 at 07:00 until the 17 at 16:00 UTC


170541Z 1707/1716 27007KT 4000 -RA -DZ BKN003 BKN007
TEMPO 1707/1708 2000 RA DZ BKN002 BKN004
BECMG 1709/1711 8000 NSW FEW005 BKN015
TEMPO 1710/1716 27010G20KT 5000 -SHRA SCT007 BKN012



MET'MAP, your aeronautical weather chart ! - Copyright ORBIFLY December 2007 - Disclaimer

ORBIFLY MET'MAP TEAM :

Programming & Development : Alexandra Zaïnal
Concept & original design : Baudouin d'Aumeries
Assistance for programming : Marc-Olivier Méhu
Technical & hardware support : Manuel Goepfert

Contact : metmap@orbifly.com




SOURCES & CREDITS :

   NOAA